sensor_id;sensor_type;location;lat;lon;timestamp;temperature;humidity
43249;DHT22;29216;51.248;6.808;2022-10-16T00:00:43;13.50;99.90
43249;DHT22;29216;51.248;6.808;2022-10-16T00:03:10;13.50;99.90
43249;DHT22;29216;51.248;6.808;2022-10-16T00:05:41;13.50;99.90
43249;DHT22;29216;51.248;6.808;2022-10-16T00:08:08;13.40;99.90
43249;DHT22;29216;51.248;6.808;2022-10-16T00:10:34;13.40;99.90
43249;DHT22;29216;51.248;6.808;2022-10-16T00:13:00;13.40;99.90
43249;DHT22;29216;51.248;6.808;2022-10-16T00:15:26;13.40;99.90
43249;DHT22;29216;51.248;6.808;2022-10-16T00:17:52;13.30;99.90
43249;DHT22;29216;51.248;6.808;2022-10-16T00:20:17;13.30;99.90
43249;DHT22;29216;51.248;6.808;2022-10-16T00:22:43;13.20;99.90
43249;DHT22;29216;51.248;6.808;2022-10-16T00:25:09;13.20;99.90
43249;DHT22;29216;51.248;6.808;2022-10-16T00:27:34;13.20;99.90
43249;DHT22;29216;51.248;6.808;2022-10-16T00:30:00;13.10;99.90
43249;DHT22;29216;51.248;6.808;2022-10-16T00:32:26;13.10;99.90
43249;DHT22;29216;51.248;6.808;2022-10-16T00:34:51;13.10;99.90
43249;DHT22;29216;51.248;6.808;2022-10-16T00:37:20;13.10;99.90
43249;DHT22;29216;51.248;6.808;2022-10-16T00:39:46;13.00;99.90
43249;DHT22;29216;51.248;6.808;2022-10-16T00:42:16;13.00;99.90
43249;DHT22;29216;51.248;6.808;2022-10-16T00:44:55;13.00;99.90
43249;DHT22;29216;51.248;6.808;2022-10-16T00:47:40;12.90;99.90
43249;DHT22;29216;51.248;6.808;2022-10-16T00:52:41;13.00;99.90
43249;DHT22;29216;51.248;6.808;2022-10-16T00:55:09;13.00;99.90
43249;DHT22;29216;51.248;6.808;2022-10-16T00:57:35;13.00;99.90
43249;DHT22;29216;51.248;6.808;2022-10-16T01:00:06;13.00;99.90
43249;DHT22;29216;51.248;6.808;2022-10-16T01:02:31;13.00;99.90
43249;DHT22;29216;51.248;6.808;2022-10-16T01:04:57;12.90;99.90
43249;DHT22;29216;51.248;6.808;2022-10-16T01:15:41;13.00;99.90
43249;DHT22;29216;51.248;6.808;2022-10-16T01:20:45;13.00;99.90
43249;DHT22;29216;51.248;6.808;2022-10-16T01:23:33;13.00;99.90
43249;DHT22;29216;51.248;6.808;2022-10-16T01:28:36;12.90;99.90
43249;DHT22;29216;51.248;6.808;2022-10-16T01:31:05;12.90;99.90
43249;DHT22;29216;51.248;6.808;2022-10-16T01:33:38;12.80;99.90
43249;DHT22;29216;51.248;6.808;2022-10-16T01:36:13;12.80;99.90
43249;DHT22;29216;51.248;6.808;2022-10-16T01:38:40;12.80;99.90
43249;DHT22;29216;51.248;6.808;2022-10-16T01:41:33;12.90;99.90
43249;DHT22;29216;51.248;6.808;2022-10-16T01:44:10;12.90;99.90
43249;DHT22;29216;51.248;6.808;2022-10-16T01:46:39;13.00;99.90
43249;DHT22;29216;51.248;6.808;2022-10-16T01:49:07;13.00;99.90
43249;DHT22;29216;51.248;6.808;2022-10-16T01:51:35;13.10;99.90
43249;DHT22;29216;51.248;6.808;2022-10-16T01:54:02;13.10;99.90
43249;DHT22;29216;51.248;6.808;2022-10-16T01:56:29;13.10;99.90
43249;DHT22;29216;51.248;6.808;2022-10-16T01:59:05;13.20;99.90
43249;DHT22;29216;51.248;6.808;2022-10-16T02:01:33;13.20;99.90
43249;DHT22;29216;51.248;6.808;2022-10-16T02:04:07;13.20;99.90
43249;DHT22;29216;51.248;6.808;2022-10-16T02:06:34;13.30;99.90
43249;DHT22;29216;51.248;6.808;2022-10-16T02:09:01;13.30;99.90
43249;DHT22;29216;51.248;6.808;2022-10-16T02:11:27;13.40;99.90
43249;DHT22;29216;51.248;6.808;2022-10-16T02:14:00;13.40;99.90
43249;DHT22;29216;51.248;6.808;2022-10-16T02:16:34;13.30;99.90
43249;DHT22;29216;51.248;6.808;2022-10-16T02:19:00;13.30;99.90
43249;DHT22;29216;51.248;6.808;2022-10-16T02:21:29;13.40;99.90
43249;DHT22;29216;51.248;6.808;2022-10-16T02:24:21;13.40;99.90
43249;DHT22;29216;51.248;6.808;2022-10-16T02:29:42;13.50;99.90
43249;DHT22;29216;51.248;6.808;2022-10-16T02:32:15;13.50;99.90
43249;DHT22;29216;51.248;6.808;2022-10-16T02:34:41;13.50;99.90
43249;DHT22;29216;51.248;6.808;2022-10-16T02:37:07;13.50;99.90
43249;DHT22;29216;51.248;6.808;2022-10-16T02:39:34;13.60;99.90
43249;DHT22;29216;51.248;6.808;2022-10-16T02:42:00;13.60;99.90
43249;DHT22;29216;51.248;6.808;2022-10-16T02:44:25;13.60;99.90
43249;DHT22;29216;51.248;6.808;2022-10-16T02:46:51;13.60;99.90
43249;DHT22;29216;51.248;6.808;2022-10-16T02:49:17;13.70;99.90
43249;DHT22;29216;51.248;6.808;2022-10-16T02:51:43;13.60;99.90
43249;DHT22;29216;51.248;6.808;2022-10-16T02:54:11;13.60;99.90
43249;DHT22;29216;51.248;6.808;2022-10-16T02:56:38;13.60;99.90
43249;DHT22;29216;51.248;6.808;2022-10-16T02:59:06;13.60;99.90
43249;DHT22;29216;51.248;6.808;2022-10-16T03:01:32;13.60;99.90
43249;DHT22;29216;51.248;6.808;2022-10-16T03:03:57;13.60;99.90
43249;DHT22;29216;51.248;6.808;2022-10-16T03:06:23;13.60;99.90
43249;DHT22;29216;51.248;6.808;2022-10-16T03:08:49;13.60;99.90
43249;DHT22;29216;51.248;6.808;2022-10-16T03:11:14;13.60;99.90
43249;DHT22;29216;51.248;6.808;2022-10-16T03:13:40;13.50;99.90
43249;DHT22;29216;51.248;6.808;2022-10-16T03:16:05;13.40;99.90
43249;DHT22;29216;51.248;6.808;2022-10-16T03:18:31;13.30;99.90
43249;DHT22;29216;51.248;6.808;2022-10-16T03:20:56;13.40;99.90
43249;DHT22;29216;51.248;6.808;2022-10-16T03:23:22;13.40;99.90
43249;DHT22;29216;51.248;6.808;2022-10-16T03:25:48;13.40;99.90
43249;DHT22;29216;51.248;6.808;2022-10-16T03:28:13;13.40;99.90
43249;DHT22;29216;51.248;6.808;2022-10-16T03:30:39;13.40;99.90
43249;DHT22;29216;51.248;6.808;2022-10-16T03:33:05;13.50;99.90
43249;DHT22;29216;51.248;6.808;2022-10-16T03:35:34;13.50;99.90
43249;DHT22;29216;51.248;6.808;2022-10-16T03:37:59;13.40;99.90
43249;DHT22;29216;51.248;6.808;2022-10-16T03:40:25;13.40;99.90
43249;DHT22;29216;51.248;6.808;2022-10-16T03:42:51;13.40;99.90
43249;DHT22;29216;51.248;6.808;2022-10-16T03:45:16;13.40;99.90
43249;DHT22;29216;51.248;6.808;2022-10-16T03:47:42;13.30;99.90
43249;DHT22;29216;51.248;6.808;2022-10-16T03:50:08;13.30;99.90
43249;DHT22;29216;51.248;6.808;2022-10-16T03:52:34;13.20;99.90
43249;DHT22;29216;51.248;6.808;2022-10-16T03:55:00;13.20;99.90
43249;DHT22;29216;51.248;6.808;2022-10-16T03:57:25;13.10;99.90
43249;DHT22;29216;51.248;6.808;2022-10-16T03:59:51;13.10;99.90
43249;DHT22;29216;51.248;6.808;2022-10-16T04:02:16;13.00;99.90
43249;DHT22;29216;51.248;6.808;2022-10-16T04:04:42;13.00;99.90
43249;DHT22;29216;51.248;6.808;2022-10-16T04:07:07;12.80;99.90
43249;DHT22;29216;51.248;6.808;2022-10-16T04:09:33;12.80;99.90
43249;DHT22;29216;51.248;6.808;2022-10-16T04:11:59;12.80;99.90
43249;DHT22;29216;51.248;6.808;2022-10-16T04:14:24;12.70;99.90
43249;DHT22;29216;51.248;6.808;2022-10-16T04:16:50;12.60;99.90
43249;DHT22;29216;51.248;6.808;2022-10-16T04:19:15;12.50;99.90
43249;DHT22;29216;51.248;6.808;2022-10-16T04:21:41;12.40;99.90
43249;DHT22;29216;51.248;6.808;2022-10-16T04:24:06;12.40;99.90
43249;DHT22;29216;51.248;6.808;2022-10-16T04:26:32;12.40;99.90
43249;DHT22;29216;51.248;6.808;2022-10-16T04:28:58;12.30;99.90
43249;DHT22;29216;51.248;6.808;2022-10-16T04:31:23;12.30;99.90
43249;DHT22;29216;51.248;6.808;2022-10-16T04:33:49;12.40;99.90
43249;DHT22;29216;51.248;6.808;2022-10-16T04:36:15;12.40;99.90
43249;DHT22;29216;51.248;6.808;2022-10-16T04:38:40;12.40;99.90
43249;DHT22;29216;51.248;6.808;2022-10-16T04:41:07;12.40;99.90
43249;DHT22;29216;51.248;6.808;2022-10-16T04:43:33;12.40;99.90
43249;DHT22;29216;51.248;6.808;2022-10-16T04:45:59;12.40;99.90
43249;DHT22;29216;51.248;6.808;2022-10-16T04:48:25;12.40;99.90
43249;DHT22;29216;51.248;6.808;2022-10-16T04:50:50;12.40;99.90
43249;DHT22;29216;51.248;6.808;2022-10-16T04:53:16;12.50;99.90
43249;DHT22;29216;51.248;6.808;2022-10-16T04:55:42;12.50;99.90
43249;DHT22;29216;51.248;6.808;2022-10-16T04:58:08;12.50;99.90
43249;DHT22;29216;51.248;6.808;2022-10-16T05:00:34;12.50;99.90
43249;DHT22;29216;51.248;6.808;2022-10-16T05:03:00;12.30;99.90
43249;DHT22;29216;51.248;6.808;2022-10-16T05:05:27;12.40;99.90
43249;DHT22;29216;51.248;6.808;2022-10-16T05:07:53;12.40;99.90
43249;DHT22;29216;51.248;6.808;2022-10-16T05:10:19;12.40;99.90
43249;DHT22;29216;51.248;6.808;2022-10-16T05:12:45;12.40;99.90
43249;DHT22;29216;51.248;6.808;2022-10-16T05:15:10;12.30;99.90
43249;DHT22;29216;51.248;6.808;2022-10-16T05:17:36;12.30;99.90
43249;DHT22;29216;51.248;6.808;2022-10-16T05:20:02;12.30;99.90
43249;DHT22;29216;51.248;6.808;2022-10-16T05:22:28;12.30;99.90
43249;DHT22;29216;51.248;6.808;2022-10-16T05:24:54;12.20;99.90
43249;DHT22;29216;51.248;6.808;2022-10-16T05:27:20;12.20;99.90
43249;DHT22;29216;51.248;6.808;2022-10-16T05:29:46;12.20;99.90
43249;DHT22;29216;51.248;6.808;2022-10-16T05:32:13;12.20;99.90
43249;DHT22;29216;51.248;6.808;2022-10-16T05:34:39;12.30;99.90
43249;DHT22;29216;51.248;6.808;2022-10-16T05:37:05;12.30;99.90
43249;DHT22;29216;51.248;6.808;2022-10-16T05:39:31;12.30;99.90
43249;DHT22;29216;51.248;6.808;2022-10-16T05:41:56;12.30;99.90
43249;DHT22;29216;51.248;6.808;2022-10-16T05:44:22;12.30;99.90
43249;DHT22;29216;51.248;6.808;2022-10-16T05:46:47;12.30;99.90
43249;DHT22;29216;51.248;6.808;2022-10-16T05:49:13;12.30;99.90
43249;DHT22;29216;51.248;6.808;2022-10-16T05:51:39;12.40;99.90
43249;DHT22;29216;51.248;6.808;2022-10-16T05:54:04;12.40;99.90
43249;DHT22;29216;51.248;6.808;2022-10-16T05:56:30;12.40;99.90
43249;DHT22;29216;51.248;6.808;2022-10-16T05:58:55;12.50;99.90
43249;DHT22;29216;51.248;6.808;2022-10-16T06:01:21;12.50;99.90
43249;DHT22;29216;51.248;6.808;2022-10-16T06:03:50;12.50;99.90
43249;DHT22;29216;51.248;6.808;2022-10-16T06:06:21;12.50;99.90
43249;DHT22;29216;51.248;6.808;2022-10-16T06:08:48;12.50;99.90
43249;DHT22;29216;51.248;6.808;2022-10-16T06:11:19;12.50;99.90
43249;DHT22;29216;51.248;6.808;2022-10-16T06:13:45;12.50;99.90
43249;DHT22;29216;51.248;6.808;2022-10-16T06:16:12;12.50;99.90
43249;DHT22;29216;51.248;6.808;2022-10-16T06:18:38;12.60;99.90
43249;DHT22;29216;51.248;6.808;2022-10-16T06:21:12;12.50;99.90
43249;DHT22;29216;51.248;6.808;2022-10-16T06:23:39;12.50;99.90
43249;DHT22;29216;51.248;6.808;2022-10-16T06:26:09;12.60;99.90
43249;DHT22;29216;51.248;6.808;2022-10-16T06:28:35;12.70;99.90
43249;DHT22;29216;51.248;6.808;2022-10-16T06:31:02;12.70;99.90
43249;DHT22;29216;51.248;6.808;2022-10-16T06:33:28;12.70;99.90
43249;DHT22;29216;51.248;6.808;2022-10-16T06:35:53;12.90;99.90
43249;DHT22;29216;51.248;6.808;2022-10-16T06:38:19;12.90;99.90
43249;DHT22;29216;51.248;6.808;2022-10-16T06:40:44;13.00;99.90
43249;DHT22;29216;51.248;6.808;2022-10-16T06:43:10;13.00;99.90
43249;DHT22;29216;51.248;6.808;2022-10-16T06:45:35;13.10;99.90
43249;DHT22;29216;51.248;6.808;2022-10-16T06:48:02;13.20;99.90
43249;DHT22;29216;51.248;6.808;2022-10-16T06:50:28;13.80;99.90
43249;DHT22;29216;51.248;6.808;2022-10-16T06:52:53;14.20;99.90
43249;DHT22;29216;51.248;6.808;2022-10-16T06:55:19;14.30;99.90
43249;DHT22;29216;51.248;6.808;2022-10-16T06:57:46;14.40;99.90
43249;DHT22;29216;51.248;6.808;2022-10-16T07:00:12;14.60;99.90
43249;DHT22;29216;51.248;6.808;2022-10-16T07:02:38;14.80;99.90
43249;DHT22;29216;51.248;6.808;2022-10-16T07:05:04;15.00;99.90
43249;DHT22;29216;51.248;6.808;2022-10-16T07:07:29;15.10;99.90
43249;DHT22;29216;51.248;6.808;2022-10-16T07:09:55;15.20;99.90
43249;DHT22;29216;51.248;6.808;2022-10-16T07:12:21;15.20;99.90
43249;DHT22;29216;51.248;6.808;2022-10-16T07:14:46;15.00;99.90
43249;DHT22;29216;51.248;6.808;2022-10-16T07:17:12;15.00;99.90
43249;DHT22;29216;51.248;6.808;2022-10-16T07:19:37;14.80;99.90
43249;DHT22;29216;51.248;6.808;2022-10-16T07:22:03;14.70;99.90
43249;DHT22;29216;51.248;6.808;2022-10-16T07:24:30;14.60;99.90
43249;DHT22;29216;51.248;6.808;2022-10-16T07:26:55;14.40;99.90
43249;DHT22;29216;51.248;6.808;2022-10-16T07:29:21;14.30;99.90
43249;DHT22;29216;51.248;6.808;2022-10-16T07:31:48;14.30;99.90
43249;DHT22;29216;51.248;6.808;2022-10-16T07:34:16;14.50;99.90
43249;DHT22;29216;51.248;6.808;2022-10-16T07:36:42;14.50;99.90
43249;DHT22;29216;51.248;6.808;2022-10-16T07:39:08;14.50;99.90
43249;DHT22;29216;51.248;6.808;2022-10-16T07:41:34;14.80;99.90
43249;DHT22;29216;51.248;6.808;2022-10-16T07:44:03;15.30;99.90
43249;DHT22;29216;51.248;6.808;2022-10-16T07:46:29;16.20;99.90
43249;DHT22;29216;51.248;6.808;2022-10-16T07:48:55;17.30;99.90
43249;DHT22;29216;51.248;6.808;2022-10-16T07:51:22;18.60;99.90
43249;DHT22;29216;51.248;6.808;2022-10-16T07:53:48;20.10;99.90
43249;DHT22;29216;51.248;6.808;2022-10-16T07:56:15;21.20;99.90
43249;DHT22;29216;51.248;6.808;2022-10-16T07:58:41;22.10;99.90
43249;DHT22;29216;51.248;6.808;2022-10-16T08:01:12;23.00;99.90
43249;DHT22;29216;51.248;6.808;2022-10-16T08:03:41;23.20;99.90
43249;DHT22;29216;51.248;6.808;2022-10-16T08:06:07;22.60;99.90
43249;DHT22;29216;51.248;6.808;2022-10-16T08:08:32;21.70;99.90
43249;DHT22;29216;51.248;6.808;2022-10-16T08:10:58;20.80;99.90
43249;DHT22;29216;51.248;6.808;2022-10-16T08:13:24;19.90;99.90
43249;DHT22;29216;51.248;6.808;2022-10-16T08:15:50;19.10;99.90
43249;DHT22;29216;51.248;6.808;2022-10-16T08:18:16;18.60;99.90
43249;DHT22;29216;51.248;6.808;2022-10-16T08:20:42;18.20;99.90
43249;DHT22;29216;51.248;6.808;2022-10-16T08:23:09;17.80;99.90
43249;DHT22;29216;51.248;6.808;2022-10-16T08:25:36;17.40;99.90
43249;DHT22;29216;51.248;6.808;2022-10-16T08:28:09;17.10;99.90
43249;DHT22;29216;51.248;6.808;2022-10-16T08:30:35;17.00;99.90
43249;DHT22;29216;51.248;6.808;2022-10-16T08:33:01;16.90;99.90
43249;DHT22;29216;51.248;6.808;2022-10-16T08:35:27;16.80;99.90
43249;DHT22;29216;51.248;6.808;2022-10-16T08:37:53;16.70;99.90
43249;DHT22;29216;51.248;6.808;2022-10-16T08:40:28;16.70;99.90
43249;DHT22;29216;51.248;6.808;2022-10-16T08:43:31;16.60;99.90
43249;DHT22;29216;51.248;6.808;2022-10-16T08:46:09;16.60;99.90
43249;DHT22;29216;51.248;6.808;2022-10-16T08:48:53;16.60;99.90
43249;DHT22;29216;51.248;6.808;2022-10-16T08:51:37;16.60;99.90
43249;DHT22;29216;51.248;6.808;2022-10-16T08:54:05;16.60;99.90
43249;DHT22;29216;51.248;6.808;2022-10-16T08:56:31;16.50;99.90
43249;DHT22;29216;51.248;6.808;2022-10-16T08:58:58;16.50;99.90
43249;DHT22;29216;51.248;6.808;2022-10-16T09:01:32;16.50;99.90
43249;DHT22;29216;51.248;6.808;2022-10-16T09:15:45;16.70;99.90
43249;DHT22;29216;51.248;6.808;2022-10-16T09:18:40;16.70;99.90
43249;DHT22;29216;51.248;6.808;2022-10-16T09:21:27;16.80;99.90
43249;DHT22;29216;51.248;6.808;2022-10-16T09:23:58;16.80;99.90
43249;DHT22;29216;51.248;6.808;2022-10-16T09:26:24;16.80;99.90
43249;DHT22;29216;51.248;6.808;2022-10-16T09:28:52;16.80;99.90
43249;DHT22;29216;51.248;6.808;2022-10-16T09:31:20;16.90;99.90
43249;DHT22;29216;51.248;6.808;2022-10-16T09:33:53;16.90;99.90
43249;DHT22;29216;51.248;6.808;2022-10-16T09:36:21;16.90;99.90
43249;DHT22;29216;51.248;6.808;2022-10-16T09:38:48;17.00;99.90
43249;DHT22;29216;51.248;6.808;2022-10-16T09:41:21;17.00;99.90
43249;DHT22;29216;51.248;6.808;2022-10-16T09:43:51;17.00;99.90
43249;DHT22;29216;51.248;6.808;2022-10-16T09:46:35;17.10;99.90
43249;DHT22;29216;51.248;6.808;2022-10-16T09:49:04;17.10;99.90
43249;DHT22;29216;51.248;6.808;2022-10-16T09:51:36;17.20;99.90
43249;DHT22;29216;51.248;6.808;2022-10-16T09:56:38;17.20;99.90
43249;DHT22;29216;51.248;6.808;2022-10-16T09:59:12;17.20;99.90
43249;DHT22;29216;51.248;6.808;2022-10-16T10:01:47;17.30;99.90
43249;DHT22;29216;51.248;6.808;2022-10-16T10:04:13;17.30;99.90
43249;DHT22;29216;51.248;6.808;2022-10-16T10:06:53;17.30;99.90
43249;DHT22;29216;51.248;6.808;2022-10-16T10:11:56;17.40;99.90
43249;DHT22;29216;51.248;6.808;2022-10-16T10:14:26;17.40;99.90
43249;DHT22;29216;51.248;6.808;2022-10-16T10:17:09;17.40;99.90
43249;DHT22;29216;51.248;6.808;2022-10-16T10:36:16;17.10;99.90
43249;DHT22;29216;51.248;6.808;2022-10-16T10:38:54;17.10;99.90
43249;DHT22;29216;51.248;6.808;2022-10-16T11:01:06;17.30;99.90
43249;DHT22;29216;51.248;6.808;2022-10-16T11:04:34;17.30;99.90
43249;DHT22;29216;51.248;6.808;2022-10-16T11:06:48;17.30;99.90
43249;DHT22;29216;51.248;6.808;2022-10-16T11:09:19;17.30;99.90
43249;DHT22;29216;51.248;6.808;2022-10-16T11:12:18;17.40;99.90
43249;DHT22;29216;51.248;6.808;2022-10-16T11:14:54;17.40;99.90
43249;DHT22;29216;51.248;6.808;2022-10-16T11:17:27;17.40;99.90
43249;DHT22;29216;51.248;6.808;2022-10-16T11:19:58;17.50;99.90
43249;DHT22;29216;51.248;6.808;2022-10-16T11:22:37;17.50;99.90
43249;DHT22;29216;51.248;6.808;2022-10-16T11:25:18;17.50;99.90
43249;DHT22;29216;51.248;6.808;2022-10-16T11:30:29;17.80;99.90
43249;DHT22;29216;51.248;6.808;2022-10-16T11:33:13;17.80;99.90
43249;DHT22;29216;51.248;6.808;2022-10-16T11:36:06;17.80;99.90
43249;DHT22;29216;51.248;6.808;2022-10-16T11:38:53;17.90;99.90
43249;DHT22;29216;51.248;6.808;2022-10-16T11:41:34;17.90;99.90
43249;DHT22;29216;51.248;6.808;2022-10-16T11:44:24;18.00;99.90
43249;DHT22;29216;51.248;6.808;2022-10-16T11:49:44;18.00;99.90
43249;DHT22;29216;51.248;6.808;2022-10-16T11:57:33;17.90;99.90
43249;DHT22;29216;51.248;6.808;2022-10-16T12:00:37;17.80;99.90
43249;DHT22;29216;51.248;6.808;2022-10-16T12:06:01;17.70;99.90
43249;DHT22;29216;51.248;6.808;2022-10-16T12:08:34;17.80;99.90
43249;DHT22;29216;51.248;6.808;2022-10-16T12:13:49;17.90;99.90
43249;DHT22;29216;51.248;6.808;2022-10-16T12:18:42;18.00;99.90
43249;DHT22;29216;51.248;6.808;2022-10-16T12:21:09;18.10;99.90
43249;DHT22;29216;51.248;6.808;2022-10-16T12:23:46;18.20;99.90
43249;DHT22;29216;51.248;6.808;2022-10-16T12:26:12;18.30;99.90
43249;DHT22;29216;51.248;6.808;2022-10-16T12:28:38;18.40;99.90
43249;DHT22;29216;51.248;6.808;2022-10-16T12:31:07;18.40;99.90
43249;DHT22;29216;51.248;6.808;2022-10-16T12:33:40;18.50;99.90
43249;DHT22;29216;51.248;6.808;2022-10-16T12:36:15;18.70;99.90
43249;DHT22;29216;51.248;6.808;2022-10-16T12:38:51;18.70;99.90
43249;DHT22;29216;51.248;6.808;2022-10-16T12:41:29;18.70;99.90
43249;DHT22;29216;51.248;6.808;2022-10-16T12:43:56;18.70;99.90
43249;DHT22;29216;51.248;6.808;2022-10-16T12:46:33;18.80;99.90
43249;DHT22;29216;51.248;6.808;2022-10-16T12:51:44;19.00;99.90
43249;DHT22;29216;51.248;6.808;2022-10-16T13:00:06;19.30;99.90
43249;DHT22;29216;51.248;6.808;2022-10-16T13:05:59;19.30;99.90
43249;DHT22;29216;51.248;6.808;2022-10-16T13:11:08;19.10;99.90
43249;DHT22;29216;51.248;6.808;2022-10-16T13:16:50;18.90;99.90
43249;DHT22;29216;51.248;6.808;2022-10-16T13:29:54;19.60;99.90
43249;DHT22;29216;51.248;6.808;2022-10-16T13:32:25;19.90;99.90
43249;DHT22;29216;51.248;6.808;2022-10-16T13:34:51;20.10;99.90
43249;DHT22;29216;51.248;6.808;2022-10-16T13:37:23;20.30;99.90
43249;DHT22;29216;51.248;6.808;2022-10-16T13:39:48;20.30;99.90
43249;DHT22;29216;51.248;6.808;2022-10-16T13:42:34;20.20;99.90
43249;DHT22;29216;51.248;6.808;2022-10-16T13:44:59;20.20;99.90
43249;DHT22;29216;51.248;6.808;2022-10-16T13:47:29;20.10;99.90
43249;DHT22;29216;51.248;6.808;2022-10-16T13:50:16;20.10;99.90
43249;DHT22;29216;51.248;6.808;2022-10-16T13:52:42;20.10;99.90
43249;DHT22;29216;51.248;6.808;2022-10-16T13:55:16;20.20;99.90
43249;DHT22;29216;51.248;6.808;2022-10-16T13:57:42;20.10;99.90
43249;DHT22;29216;51.248;6.808;2022-10-16T14:00:38;20.20;99.90
43249;DHT22;29216;51.248;6.808;2022-10-16T14:03:13;20.20;99.90
43249;DHT22;29216;51.248;6.808;2022-10-16T14:05:48;20.50;99.90
43249;DHT22;29216;51.248;6.808;2022-10-16T14:08:14;20.60;99.90
43249;DHT22;29216;51.248;6.808;2022-10-16T14:10:40;20.70;99.90
43249;DHT22;29216;51.248;6.808;2022-10-16T14:13:07;20.60;99.90
43249;DHT22;29216;51.248;6.808;2022-10-16T14:15:35;20.70;99.90
43249;DHT22;29216;51.248;6.808;2022-10-16T14:18:02;20.80;99.90
43249;DHT22;29216;51.248;6.808;2022-10-16T14:20:33;20.70;99.90
43249;DHT22;29216;51.248;6.808;2022-10-16T14:23:02;20.60;99.90
43249;DHT22;29216;51.248;6.808;2022-10-16T14:25:31;20.40;99.90
43249;DHT22;29216;51.248;6.808;2022-10-16T14:30:26;20.30;99.90
43249;DHT22;29216;51.248;6.808;2022-10-16T14:32:56;20.20;99.90
43249;DHT22;29216;51.248;6.808;2022-10-16T14:37:53;20.10;99.90
43249;DHT22;29216;51.248;6.808;2022-10-16T14:40:22;20.00;99.90
43249;DHT22;29216;51.248;6.808;2022-10-16T14:42:49;19.80;99.90
43249;DHT22;29216;51.248;6.808;2022-10-16T14:45:19;19.60;99.90
43249;DHT22;29216;51.248;6.808;2022-10-16T14:48:14;19.60;99.90
43249;DHT22;29216;51.248;6.808;2022-10-16T14:50:41;19.50;99.90
43249;DHT22;29216;51.248;6.808;2022-10-16T14:53:11;19.40;99.90
43249;DHT22;29216;51.248;6.808;2022-10-16T14:55:38;19.40;99.90
43249;DHT22;29216;51.248;6.808;2022-10-16T14:58:05;19.30;99.90
43249;DHT22;29216;51.248;6.808;2022-10-16T15:00:31;19.30;99.90
43249;DHT22;29216;51.248;6.808;2022-10-16T15:02:56;19.30;99.90
43249;DHT22;29216;51.248;6.808;2022-10-16T15:05:24;19.30;99.90
43249;DHT22;29216;51.248;6.808;2022-10-16T15:07:52;19.20;99.90
43249;DHT22;29216;51.248;6.808;2022-10-16T15:10:19;19.10;99.90
43249;DHT22;29216;51.248;6.808;2022-10-16T15:12:45;19.10;99.90
43249;DHT22;29216;51.248;6.808;2022-10-16T15:17:47;19.00;99.90
43249;DHT22;29216;51.248;6.808;2022-10-16T15:20:13;19.00;99.90
43249;DHT22;29216;51.248;6.808;2022-10-16T15:22:38;18.90;99.90
43249;DHT22;29216;51.248;6.808;2022-10-16T15:27:47;18.80;99.90
43249;DHT22;29216;51.248;6.808;2022-10-16T15:30:13;18.70;99.90
43249;DHT22;29216;51.248;6.808;2022-10-16T15:32:39;18.70;99.90
43249;DHT22;29216;51.248;6.808;2022-10-16T15:35:07;18.60;99.90
43249;DHT22;29216;51.248;6.808;2022-10-16T15:37:33;18.50;99.90
43249;DHT22;29216;51.248;6.808;2022-10-16T15:39:59;18.40;99.90
43249;DHT22;29216;51.248;6.808;2022-10-16T15:42:24;18.30;99.90
43249;DHT22;29216;51.248;6.808;2022-10-16T15:44:50;18.20;99.90
43249;DHT22;29216;51.248;6.808;2022-10-16T15:47:15;18.20;99.90
43249;DHT22;29216;51.248;6.808;2022-10-16T15:49:41;18.20;99.90
43249;DHT22;29216;51.248;6.808;2022-10-16T15:52:07;18.20;99.90
43249;DHT22;29216;51.248;6.808;2022-10-16T15:54:35;18.10;99.90
43249;DHT22;29216;51.248;6.808;2022-10-16T15:57:01;18.00;99.90
43249;DHT22;29216;51.248;6.808;2022-10-16T15:59:26;18.00;99.90
43249;DHT22;29216;51.248;6.808;2022-10-16T16:01:52;17.90;99.90
43249;DHT22;29216;51.248;6.808;2022-10-16T16:04:17;17.90;99.90
43249;DHT22;29216;51.248;6.808;2022-10-16T16:06:43;17.80;99.90
43249;DHT22;29216;51.248;6.808;2022-10-16T16:09:11;17.80;99.90
43249;DHT22;29216;51.248;6.808;2022-10-16T16:11:37;17.70;99.90
43249;DHT22;29216;51.248;6.808;2022-10-16T16:14:07;17.70;99.90
43249;DHT22;29216;51.248;6.808;2022-10-16T16:16:35;17.70;99.90
43249;DHT22;29216;51.248;6.808;2022-10-16T16:19:04;17.60;99.90
43249;DHT22;29216;51.248;6.808;2022-10-16T16:21:31;17.50;99.90
43249;DHT22;29216;51.248;6.808;2022-10-16T16:23:57;17.40;99.90
43249;DHT22;29216;51.248;6.808;2022-10-16T16:26:28;17.40;99.90
43249;DHT22;29216;51.248;6.808;2022-10-16T16:28:57;17.30;99.90
43249;DHT22;29216;51.248;6.808;2022-10-16T16:31:25;17.30;99.90
43249;DHT22;29216;51.248;6.808;2022-10-16T16:33:51;17.20;99.90
43249;DHT22;29216;51.248;6.808;2022-10-16T16:36:17;17.10;99.90
43249;DHT22;29216;51.248;6.808;2022-10-16T16:38:46;17.10;99.90
43249;DHT22;29216;51.248;6.808;2022-10-16T16:41:17;17.00;99.90
43249;DHT22;29216;51.248;6.808;2022-10-16T16:43:43;16.90;99.90
43249;DHT22;29216;51.248;6.808;2022-10-16T16:46:09;16.90;99.90
43249;DHT22;29216;51.248;6.808;2022-10-16T16:48:35;16.80;99.90
43249;DHT22;29216;51.248;6.808;2022-10-16T16:51:14;16.80;99.90
43249;DHT22;29216;51.248;6.808;2022-10-16T16:53:42;16.70;99.90
43249;DHT22;29216;51.248;6.808;2022-10-16T16:56:08;16.70;99.90
43249;DHT22;29216;51.248;6.808;2022-10-16T16:58:34;16.60;99.90
43249;DHT22;29216;51.248;6.808;2022-10-16T17:01:00;16.60;99.90
43249;DHT22;29216;51.248;6.808;2022-10-16T17:03:31;16.50;99.90
43249;DHT22;29216;51.248;6.808;2022-10-16T17:06:02;16.50;99.90
43249;DHT22;29216;51.248;6.808;2022-10-16T17:08:28;16.50;99.90
43249;DHT22;29216;51.248;6.808;2022-10-16T17:11:00;16.40;99.90
43249;DHT22;29216;51.248;6.808;2022-10-16T17:13:30;16.40;99.90
43249;DHT22;29216;51.248;6.808;2022-10-16T17:15:56;16.40;99.90
43249;DHT22;29216;51.248;6.808;2022-10-16T17:18:23;16.30;99.90
43249;DHT22;29216;51.248;6.808;2022-10-16T17:20:50;16.40;99.90
43249;DHT22;29216;51.248;6.808;2022-10-16T17:23:17;16.50;99.90
43249;DHT22;29216;51.248;6.808;2022-10-16T17:25:43;16.40;99.90
43249;DHT22;29216;51.248;6.808;2022-10-16T17:28:10;16.40;99.90
43249;DHT22;29216;51.248;6.808;2022-10-16T17:30:37;16.50;99.90
43249;DHT22;29216;51.248;6.808;2022-10-16T17:33:04;16.40;99.90
43249;DHT22;29216;51.248;6.808;2022-10-16T17:35:36;16.40;99.90
43249;DHT22;29216;51.248;6.808;2022-10-16T17:38:02;16.40;99.90
43249;DHT22;29216;51.248;6.808;2022-10-16T17:40:30;16.40;99.90
43249;DHT22;29216;51.248;6.808;2022-10-16T17:43:01;16.40;99.90
43249;DHT22;29216;51.248;6.808;2022-10-16T17:45:27;16.40;99.90
43249;DHT22;29216;51.248;6.808;2022-10-16T17:48:00;16.40;99.90
43249;DHT22;29216;51.248;6.808;2022-10-16T17:50:29;16.40;99.90